Friday, September 21, 2018, 5:34 PM EDT
Back to Local

KMPO, Mt Pocono Pocono Mountains

Location: Pocono Summit, PA, United States Lat: 41.133
Local Time: 5:34 PM EDT (21:34 GMT) Lon: -75.383
Time Zone: US/Eastern Elev: 1915 ft

Show me the last for .
Show Decoded

2018-09-21 16:53 METAR KMPO 212053Z AUTO 17010G15KT 10SM OVC009 18/16 A3008 RMK AO2 SLP183
                 T01780161 58022 =
2018-09-21 16:06 METAR KMPO 212006Z AUTO 19009G18KT 10SM OVC010 18/16 A3011 RMK AO2 T01780161 =
2018-09-21 15:53 METAR KMPO 211953Z AUTO 18011G17KT 10SM OVC009 18/16 A3011 RMK AO2 SLP192
                 T01780161 =
2018-09-21 14:53 METAR KMPO 211853Z AUTO 19011G18KT 10SM OVC007 17/16 A3013 RMK AO2 SLP199
                 T01720161 =
2018-09-21 14:46 METAR KMPO 211846Z AUTO 18011G18KT 10SM OVC007 17/16 A3013 RMK AO2 T01720161 =
2018-09-21 13:53 METAR KMPO 211753Z AUTO 17011KT 10SM OVC005 17/16 A3015 RMK AO2 SLP208 T01670161
                 10167 20144 58020 =
2018-09-21 12:53 METAR KMPO 211653Z AUTO 19009G17KT 10SM OVC006 16/16 A3018 RMK AO2 SLP219
                 T01610161 =
2018-09-21 11:53 METAR KMPO 211553Z AUTO 16011G17KT 10SM OVC005 16/16 A3019 RMK AO2 SLP222
                 T01610156 =
2018-09-21 10:53 METAR KMPO 211453Z AUTO 18010G16KT 10SM OVC005 16/16 A3022 RMK AO2 SLP230
                 T01560156 58011 =
2018-09-21 09:53 METAR KMPO 211353Z AUTO 19007KT 10SM FEW002 OVC006 14/14 A3024 RMK AO2 CIG
                 005V010 SLP239 T01440144 =
2018-09-21 09:24 METAR KMPO 211324Z AUTO 18009KT 140V200 3SM BR OVC002 15/15 A3025 RMK AO2
                 T01500150 =
2018-09-21 09:16 METAR KMPO 211316Z AUTO 18007KT 1SM BR VV002 15/15 A3025 RMK AO2 T01500150 =
2018-09-21 08:53 METAR KMPO 211253Z AUTO 17006KT 1/4SM FG VV001 15/15 A3025 RMK AO2 SLP240
                 T01500150 =
2018-09-21 08:39 METAR KMPO 211239Z AUTO 17006KT 1/4SM FG VV002 15/15 A3025 RMK AO2 T01500150 =
2018-09-21 08:24 METAR KMPO 211224Z AUTO 17006KT 1 3/4SM BR OVC002 15/15 A3025 RMK AO2 T01500150
                 =
2018-09-21 07:53 METAR KMPO 211153Z AUTO VRB05KT 3SM BR OVC002 15/15 A3025 RMK AO2 SLP242
                 T01500150 10150 20144 50000 =
2018-09-21 06:53 METAR KMPO 211053Z AUTO 17009KT 6SM BR OVC004 14/14 A3026 RMK AO2 SLP245
                 T01440144 =
2018-09-21 06:36 METAR KMPO 211036Z AUTO 15006KT 5SM BR OVC004 14/14 A3026 RMK AO2 CIG 003V007
                 T01440144 =
2018-09-21 06:17 METAR KMPO 211017Z AUTO 15008KT 10SM OVC006 14/14 A3026 RMK AO2 CIG 005V009
                 T01440144 =
2018-09-21 05:53 METAR KMPO 210953Z AUTO 14009G16KT 10SM OVC007 14/14 A3025 RMK AO2 CIG 005V009
                 SLP243 T01440144 =
2018-09-21 04:53 METAR KMPO 210853Z AUTO 17006KT 10SM OVC008 14/14 A3025 RMK AO2 CIG 006V013
                 SLP243 T01440144 55001 =
2018-09-21 03:53 METAR KMPO 210753Z AUTO VRB06KT 10SM BKN007 OVC012 14/14 A3024 RMK AO2 CIG
                 006V010 SLP240 T01440139 =
2018-09-21 02:53 METAR KMPO 210653Z AUTO 15006KT 10SM BKN007 OVC011 14/14 A3025 RMK AO2 SLP243
                 T01440139 =
2018-09-21 01:53 METAR KMPO 210553Z AUTO VRB05KT 10SM BKN008 OVC015 14/14 A3025 RMK AO2 SLP244
                 T01440139 10156 20144 56006 =
2018-09-21 01:38 METAR KMPO 210538Z AUTO 15006KT 10SM BKN009 OVC015 14/14 A3025 RMK AO2 CIG
                 007V011 T01440139 =
2018-09-21 01:23 METAR KMPO 210523Z AUTO 13005KT 10SM OVC014 14/14 A3026 RMK AO2 T01440139 =
2018-09-21 01:00 METAR KMPO 210500Z AUTO 13008KT 10SM BKN007 OVC011 14/14 A3026 RMK AO2 CIG
                 006V010 T01440144 =
2018-09-21 00:53 METAR KMPO 210453Z AUTO 14008KT 10SM OVC005 14/14 A3026 RMK AO2 CIG 004V009
                 SLP246 T01440144 401610111 =
2018-09-21 00:50 METAR KMPO 210450Z AUTO 14009KT 10SM OVC005 14/14 A3026 RMK AO2 CIG 004V009 =
2018-09-20 23:53 METAR KMPO 210353Z AUTO 14005KT 10SM OVC003 15/15 A3027 RMK AO2 SLP250 T01500150
                 =
2018-09-20 22:53 METAR KMPO 210253Z AUTO 15006KT 10SM OVC004 16/16 A3027 RMK AO2 SLP248 T01560156
                 51008 =
2018-09-20 22:44 METAR KMPO 210244Z AUTO 14009KT 10SM OVC004 16/16 A3026 RMK AO2 T01560156 =
2018-09-20 21:53 METAR KMPO 210153Z AUTO 16006KT 10SM OVC005 16/16 A3026 RMK AO2 SLP244 T01560156
                 =
2018-09-20 20:53 METAR KMPO 210053Z AUTO 14004KT 5SM BR OVC002 16/16 A3026 RMK AO2 SLP245
                 T01560156 =
2018-09-20 20:01 METAR KMPO 210001Z AUTO 15003KT 4SM BR OVC002 16/16 A3025 RMK AO2 T01560156 =
2018-09-20 19:53 METAR KMPO 202353Z AUTO 15003KT 2 1/2SM BR OVC002 16/16 A3024 RMK AO2 SLP240
                 T01560156 10161 20156 58000 =
2018-09-20 19:27 METAR KMPO 202327Z AUTO 14004KT 1 3/4SM BR OVC002 16/16 A3024 RMK AO2 T01560156
                 =
2018-09-20 19:16 METAR KMPO 202316Z AUTO 13005KT 3SM BR OVC002 16/16 A3024 RMK AO2 T01560156 =
2018-09-20 19:05 METAR KMPO 202305Z AUTO 13004KT 1SM BR VV002 16/16 A3024 RMK AO2 T01560156 =
2018-09-20 18:53 METAR KMPO 202253Z AUTO 11004KT 3/4SM BR VV002 16/16 A3025 RMK AO2 SLP241
                 T01560156 =
2018-09-20 18:46 METAR KMPO 202246Z AUTO 12005KT 1/2SM FG VV002 16/16 A3025 RMK AO2 T01560156 =
2018-09-20 18:01 METAR KMPO 202201Z AUTO 13004KT 1/4SM FG VV001 16/16 A3025 RMK AO2 T01560156 =
2018-09-20 17:53 METAR KMPO 202153Z AUTO 13005KT 1/2SM FG VV002 16/16 A3024 RMK AO2 SLP242
                 T01560156 =

Support USWX by starting your Amazon purchase here.